River Globe — V7NL8 — position and weather

sailwx.info

Track history (hours):
 
Tides and Currents Weather Stations Pressure Air Temp Water Temp Dewpoint Dewpoint Depression Visibility Wind Speed Wind Dir Waves Ship Positions

River Globe

Last reported at 2018-Feb-22 20:54 UTC. Time now 2018-Feb-25 14:06 UTC.
Position N 37°46' E 122°11'.

Length 190 m; draft 6.5 m.

Type: Cargo ship. MMSI: 538002977.

Date/timePositionNaut miles runAvg speedWind from/ knotsBaromVisibWave heightAir tempDewpointWater temp
2018-Feb-22 20:54N 37°46' E 122°11'1112.9
2018-Feb-22 20:04N 37°48' E 121°58'412.7
2018-Feb-22 19:45N 37°49' E 121°53'312.4
2018-Feb-22 19:29N 37°50' E 121°49'612.5
2018-Feb-22 18:59N 37°51' E 121°41'612.3
2018-Feb-22 18:30N 37°53' E 121°34'612.2
2018-Feb-22 17:58N 37°54' E 121°26'612.2
2018-Feb-22 17:29N 37°55' E 121°18'64 3.5
2018-Feb-21 22:59N 37°49' E 119°57'1 0.1
2018-Feb-21 01:19N 37°49' E 119°59'1610.0
2018-Feb-20 23:45N 37°38' E 120°14'310.7
2018-Feb-20 23:29N 37°39' E 120°18'0 0.9
2018-Feb-20 23:00N 37°39' E 120°18'0 0.0
2018-Feb-20 22:26N 37°39' E 120°18'0 0.0
2018-Feb-20 21:56N 37°39' E 120°18'0 0.0
2018-Feb-20 21:29N 37°39' E 120°18'0 0.0
2018-Feb-20 20:44N 37°39' E 120°18'0 0.0
2018-Feb-20 20:23N 37°39' E 120°18'0 0.0
2018-Feb-20 19:59N 37°39' E 120°18'0 0.0
2018-Feb-20 19:17N 37°39' E 120°18'0 0.0
2018-Feb-19 21:38N 37°39' E 120°18'0 0.0
2018-Feb-19 19:26N 37°39' E 120°18'0 0.0
2018-Feb-19 16:55N 37°39' E 120°18'0 0.0
2018-Feb-19 16:25N 37°39' E 120°18'0 0.0
2018-Feb-19 15:55N 37°39' E 120°18'0 0.0
2018-Feb-19 15:04N 37°39' E 120°18'0 0.0
2018-Feb-19 14:43N 37°39' E 120°18'0 0.0
2018-Feb-19 13:22N 37°39' E 120°18'0 0.0
2018-Feb-19 12:55N 37°39' E 120°18'0 0.0
2018-Feb-18 22:43N 37°39' E 120°18'0 0.0
2018-Feb-18 09:58N 37°39' E 120°18'3 4.9
2018-Feb-18 09:23N 37°39' E 120°15'51 1.2
2018-Feb-16 13:53N 37°56' E 121°16'512.2
2018-Feb-16 13:28N 37°55' E 121°22'50310.6
2018-Feb-14 13:50N 29°48' E 123°51'  
Track history (hours):
 
Tides and Currents Weather Stations Pressure Air Temp Water Temp Dewpoint Dewpoint Depression Visibility Wind Speed Wind Dir Waves Ship Positions

River Globe

Last reported at 2018-Feb-22 20:54 UTC. Time now 2018-Feb-25 14:06 UTC.
Position N 37°46' E 122°11'.

Length 190 m; draft 6.5 m.

Type: Cargo ship. MMSI: 538002977.

Date/timePositionNaut miles runAvg speedWind from/ knotsBaromVisibWave heightAir tempDewpointWater temp
2018-Feb-22 20:54N 37°46' E 122°11'1112.9
2018-Feb-22 20:04N 37°48' E 121°58'412.7
2018-Feb-22 19:45N 37°49' E 121°53'312.4
2018-Feb-22 19:29N 37°50' E 121°49'612.5
2018-Feb-22 18:59N 37°51' E 121°41'612.3
2018-Feb-22 18:30N 37°53' E 121°34'612.2
2018-Feb-22 17:58N 37°54' E 121°26'612.2
2018-Feb-22 17:29N 37°55' E 121°18'64 3.5
2018-Feb-21 22:59N 37°49' E 119°57'1 0.1
2018-Feb-21 01:19N 37°49' E 119°59'1610.0
2018-Feb-20 23:45N 37°38' E 120°14'310.7
2018-Feb-20 23:29N 37°39' E 120°18'0 0.9
2018-Feb-20 23:00N 37°39' E 120°18'0 0.0
2018-Feb-20 22:26N 37°39' E 120°18'0 0.0
2018-Feb-20 21:56N 37°39' E 120°18'0 0.0
2018-Feb-20 21:29N 37°39' E 120°18'0 0.0
2018-Feb-20 20:44N 37°39' E 120°18'0 0.0
2018-Feb-20 20:23N 37°39' E 120°18'0 0.0
2018-Feb-20 19:59N 37°39' E 120°18'0 0.0
2018-Feb-20 19:17N 37°39' E 120°18'0 0.0
2018-Feb-19 21:38N 37°39' E 120°18'0 0.0
2018-Feb-19 19:26N 37°39' E 120°18'0 0.0
2018-Feb-19 16:55N 37°39' E 120°18'0 0.0
2018-Feb-19 16:25N 37°39' E 120°18'0 0.0
2018-Feb-19 15:55N 37°39' E 120°18'0 0.0
2018-Feb-19 15:04N 37°39' E 120°18'0 0.0
2018-Feb-19 14:43N 37°39' E 120°18'0 0.0
2018-Feb-19 13:22N 37°39' E 120°18'0 0.0
2018-Feb-19 12:55N 37°39' E 120°18'0 0.0
2018-Feb-18 22:43N 37°39' E 120°18'0 0.0
2018-Feb-18 09:58N 37°39' E 120°18'3 4.9
2018-Feb-18 09:23N 37°39' E 120°15'51 1.2
2018-Feb-16 13:53N 37°56' E 121°16'512.2
2018-Feb-16 13:28N 37°55' E 121°22'50310.6
2018-Feb-14 13:50N 29°48' E 123°51'  

Dump ship's entire track history